sensor_id;sensor_type;location;lat;lon;timestamp;P1;durP1;ratioP1;P2;durP2;ratioP2
37309;SDS011;23195;47.744;7.358;2022-08-19T05:52:33;18.67;;;13.97;;
37309;SDS011;23195;47.744;7.358;2022-08-19T05:55:02;19.03;;;15.67;;
37309;SDS011;23195;47.744;7.358;2022-08-19T05:57:31;22.37;;;16.10;;
37309;SDS011;23195;47.744;7.358;2022-08-19T05:59:58;20.00;;;15.27;;
37309;SDS011;23195;47.744;7.358;2022-08-19T06:02:25;21.43;;;16.37;;
37309;SDS011;23195;47.744;7.358;2022-08-19T06:04:52;21.73;;;16.00;;
37309;SDS011;23195;47.744;7.358;2022-08-19T06:07:22;19.83;;;15.57;;
37309;SDS011;23195;47.744;7.358;2022-08-19T06:09:51;22.37;;;16.27;;
37309;SDS011;23195;47.744;7.358;2022-08-19T06:12:17;20.67;;;16.33;;
37309;SDS011;23195;47.744;7.358;2022-08-19T06:14:58;20.63;;;16.40;;
37309;SDS011;23195;47.744;7.358;2022-08-19T06:17:24;20.73;;;16.83;;
37309;SDS011;23195;47.744;7.358;2022-08-19T06:19:51;24.70;;;17.20;;
37309;SDS011;23195;47.744;7.358;2022-08-19T06:22:17;20.67;;;16.43;;
37309;SDS011;23195;47.744;7.358;2022-08-19T06:24:43;20.73;;;16.70;;
37309;SDS011;23195;47.744;7.358;2022-08-19T06:27:09;19.77;;;15.77;;
37309;SDS011;23195;47.744;7.358;2022-08-19T06:29:34;19.87;;;15.03;;
37309;SDS011;23195;47.744;7.358;2022-08-19T06:32:01;20.43;;;15.63;;
37309;SDS011;23195;47.744;7.358;2022-08-19T06:34:29;20.30;;;14.93;;
37309;SDS011;23195;47.744;7.358;2022-08-19T06:36:58;18.83;;;14.97;;
37309;SDS011;23195;47.744;7.358;2022-08-19T06:39:31;19.43;;;15.27;;
37309;SDS011;23195;47.744;7.358;2022-08-19T06:42:00;18.93;;;14.70;;
37309;SDS011;23195;47.744;7.358;2022-08-19T06:44:33;16.47;;;14.07;;
37309;SDS011;23195;47.744;7.358;2022-08-19T06:47:04;16.97;;;14.77;;
37309;SDS011;23195;47.744;7.358;2022-08-19T06:49:33;19.43;;;14.50;;
37309;SDS011;23195;47.744;7.358;2022-08-19T06:51:59;15.20;;;13.27;;
37309;SDS011;23195;47.744;7.358;2022-08-19T06:54:26;18.07;;;14.27;;
37309;SDS011;23195;47.744;7.358;2022-08-19T06:56:54;15.53;;;13.43;;
37309;SDS011;23195;47.744;7.358;2022-08-19T06:59:22;17.40;;;13.40;;
37309;SDS011;23195;47.744;7.358;2022-08-19T07:01:53;18.50;;;13.80;;
37309;SDS011;23195;47.744;7.358;2022-08-19T07:04:22;14.40;;;12.87;;
37309;SDS011;23195;47.744;7.358;2022-08-19T07:06:57;15.27;;;12.60;;
37309;SDS011;23195;47.744;7.358;2022-08-19T07:09:25;16.57;;;13.53;;
37309;SDS011;23195;47.744;7.358;2022-08-19T07:11:52;15.17;;;12.27;;
37309;SDS011;23195;47.744;7.358;2022-08-19T07:14:22;14.60;;;12.43;;
37309;SDS011;23195;47.744;7.358;2022-08-19T07:16:52;17.50;;;13.17;;
37309;SDS011;23195;47.744;7.358;2022-08-19T07:19:20;16.57;;;12.43;;
37309;SDS011;23195;47.744;7.358;2022-08-19T07:21:52;14.17;;;12.67;;
37309;SDS011;23195;47.744;7.358;2022-08-19T07:24:22;14.40;;;12.90;;
37309;SDS011;23195;47.744;7.358;2022-08-19T07:27:00;15.83;;;12.63;;
37309;SDS011;23195;47.744;7.358;2022-08-19T07:29:31;14.03;;;12.07;;
37309;SDS011;23195;47.744;7.358;2022-08-19T07:32:01;15.77;;;12.60;;
37309;SDS011;23195;47.744;7.358;2022-08-19T07:34:29;15.13;;;12.70;;
37309;SDS011;23195;47.744;7.358;2022-08-19T07:36:56;15.60;;;12.80;;
37309;SDS011;23195;47.744;7.358;2022-08-19T07:39:24;14.07;;;12.37;;
37309;SDS011;23195;47.744;7.358;2022-08-19T07:41:55;14.17;;;12.53;;
37309;SDS011;23195;47.744;7.358;2022-08-19T07:44:22;15.57;;;12.73;;
37309;SDS011;23195;47.744;7.358;2022-08-19T07:46:50;14.93;;;12.23;;
37309;SDS011;23195;47.744;7.358;2022-08-19T07:49:18;14.97;;;12.70;;
37309;SDS011;23195;47.744;7.358;2022-08-19T07:52:05;14.73;;;12.37;;
37309;SDS011;23195;47.744;7.358;2022-08-19T07:54:33;13.37;;;11.93;;
37309;SDS011;23195;47.744;7.358;2022-08-19T07:57:10;13.40;;;12.00;;
37309;SDS011;23195;47.744;7.358;2022-08-19T07:59:37;12.87;;;11.47;;
37309;SDS011;23195;47.744;7.358;2022-08-19T08:02:07;13.07;;;11.77;;
37309;SDS011;23195;47.744;7.358;2022-08-19T08:04:33;13.90;;;11.97;;
37309;SDS011;23195;47.744;7.358;2022-08-19T08:07:18;13.37;;;11.97;;
37309;SDS011;23195;47.744;7.358;2022-08-19T08:10:11;13.57;;;12.13;;
37309;SDS011;23195;47.744;7.358;2022-08-19T08:12:38;16.30;;;12.90;;
37309;SDS011;23195;47.744;7.358;2022-08-19T08:15:08;13.43;;;11.90;;
37309;SDS011;23195;47.744;7.358;2022-08-19T08:17:41;14.17;;;12.60;;
37309;SDS011;23195;47.744;7.358;2022-08-19T08:20:08;14.03;;;12.63;;
37309;SDS011;23195;47.744;7.358;2022-08-19T08:22:35;14.67;;;12.70;;
37309;SDS011;23195;47.744;7.358;2022-08-19T08:25:20;14.00;;;12.43;;
37309;SDS011;23195;47.744;7.358;2022-08-19T08:27:47;14.30;;;12.03;;
37309;SDS011;23195;47.744;7.358;2022-08-19T08:30:20;13.23;;;11.83;;
37309;SDS011;23195;47.744;7.358;2022-08-19T08:32:47;13.13;;;11.83;;
37309;SDS011;23195;47.744;7.358;2022-08-19T08:35:18;14.53;;;11.80;;
37309;SDS011;23195;47.744;7.358;2022-08-19T08:37:46;13.50;;;11.20;;
37309;SDS011;23195;47.744;7.358;2022-08-19T08:46:03;15.60;;;12.03;;
37309;SDS011;23195;47.744;7.358;2022-08-19T08:48:35;12.87;;;11.57;;
37309;SDS011;23195;47.744;7.358;2022-08-19T08:51:11;13.47;;;11.87;;
37309;SDS011;23195;47.744;7.358;2022-08-19T08:53:43;11.77;;;10.67;;
37309;SDS011;23195;47.744;7.358;2022-08-19T08:56:11;12.83;;;11.47;;
37309;SDS011;23195;47.744;7.358;2022-08-19T09:01:19;14.17;;;11.70;;
37309;SDS011;23195;47.744;7.358;2022-08-19T09:03:45;13.03;;;11.63;;
37309;SDS011;23195;47.744;7.358;2022-08-19T09:08:59;14.00;;;12.60;;
37309;SDS011;23195;47.744;7.358;2022-08-19T09:14:13;12.70;;;11.40;;
37309;SDS011;23195;47.744;7.358;2022-08-19T09:16:41;13.83;;;12.43;;
37309;SDS011;23195;47.744;7.358;2022-08-19T09:19:09;13.70;;;12.30;;
37309;SDS011;23195;47.744;7.358;2022-08-19T09:21:35;13.90;;;12.40;;
37309;SDS011;23195;47.744;7.358;2022-08-19T09:24:03;15.20;;;12.70;;
37309;SDS011;23195;47.744;7.358;2022-08-19T09:26:30;16.63;;;12.63;;
37309;SDS011;23195;47.744;7.358;2022-08-19T09:29:03;14.43;;;12.80;;
37309;SDS011;23195;47.744;7.358;2022-08-19T09:31:31;16.60;;;13.17;;
37309;SDS011;23195;47.744;7.358;2022-08-19T09:33:58;15.87;;;13.00;;
37309;SDS011;23195;47.744;7.358;2022-08-19T09:36:25;16.27;;;14.53;;
37309;SDS011;23195;47.744;7.358;2022-08-19T09:38:59;16.63;;;14.23;;
37309;SDS011;23195;47.744;7.358;2022-08-19T09:41:28;16.40;;;14.13;;
37309;SDS011;23195;47.744;7.358;2022-08-19T09:43:54;16.97;;;14.47;;
37309;SDS011;23195;47.744;7.358;2022-08-19T09:46:23;20.97;;;15.60;;
37309;SDS011;23195;47.744;7.358;2022-08-19T09:48:51;18.50;;;16.00;;
37309;SDS011;23195;47.744;7.358;2022-08-19T09:51:21;20.37;;;16.03;;
37309;SDS011;23195;47.744;7.358;2022-08-19T09:53:53;19.67;;;16.53;;
37309;SDS011;23195;47.744;7.358;2022-08-19T09:56:20;21.13;;;17.03;;
37309;SDS011;23195;47.744;7.358;2022-08-19T09:58:49;26.80;;;17.27;;
37309;SDS011;23195;47.744;7.358;2022-08-19T10:01:20;20.00;;;16.87;;
37309;SDS011;23195;47.744;7.358;2022-08-19T10:03:59;22.30;;;18.03;;
37309;SDS011;23195;47.744;7.358;2022-08-19T10:06:26;22.07;;;17.97;;
37309;SDS011;23195;47.744;7.358;2022-08-19T10:12:26;27.90;;;18.63;;
37309;SDS011;23195;47.744;7.358;2022-08-19T10:14:52;22.27;;;18.33;;
37309;SDS011;23195;47.744;7.358;2022-08-19T10:17:19;25.90;;;18.40;;
37309;SDS011;23195;47.744;7.358;2022-08-19T10:19:45;24.73;;;19.80;;
37309;SDS011;23195;47.744;7.358;2022-08-19T10:22:12;21.70;;;18.73;;
37309;SDS011;23195;47.744;7.358;2022-08-19T10:24:39;21.90;;;17.83;;
37309;SDS011;23195;47.744;7.358;2022-08-19T10:27:06;22.60;;;18.07;;
37309;SDS011;23195;47.744;7.358;2022-08-19T10:29:32;22.60;;;18.87;;
37309;SDS011;23195;47.744;7.358;2022-08-19T10:32:03;22.00;;;19.70;;
37309;SDS011;23195;47.744;7.358;2022-08-19T10:34:32;20.20;;;18.00;;
37309;SDS011;23195;47.744;7.358;2022-08-19T10:36:58;23.63;;;18.97;;
37309;SDS011;23195;47.744;7.358;2022-08-19T10:39:25;22.60;;;19.13;;
37309;SDS011;23195;47.744;7.358;2022-08-19T10:41:54;20.83;;;18.53;;
37309;SDS011;23195;47.744;7.358;2022-08-19T10:44:21;22.67;;;17.50;;
37309;SDS011;23195;47.744;7.358;2022-08-19T10:46:48;21.67;;;18.13;;
37309;SDS011;23195;47.744;7.358;2022-08-19T10:49:13;21.93;;;19.27;;
37309;SDS011;23195;47.744;7.358;2022-08-19T10:51:40;22.10;;;19.60;;
37309;SDS011;23195;47.744;7.358;2022-08-19T10:54:24;26.23;;;19.40;;
37309;SDS011;23195;47.744;7.358;2022-08-19T10:57:10;21.37;;;18.53;;
37309;SDS011;23195;47.744;7.358;2022-08-19T10:59:36;23.50;;;18.67;;
37309;SDS011;23195;47.744;7.358;2022-08-19T11:02:05;27.47;;;20.33;;
37309;SDS011;23195;47.744;7.358;2022-08-19T11:04:32;23.60;;;18.73;;
37309;SDS011;23195;47.744;7.358;2022-08-19T11:06:58;22.37;;;19.10;;
37309;SDS011;23195;47.744;7.358;2022-08-19T11:09:25;26.47;;;18.47;;
37309;SDS011;23195;47.744;7.358;2022-08-19T11:11:57;23.97;;;18.90;;
37309;SDS011;23195;47.744;7.358;2022-08-19T11:14:23;22.73;;;19.20;;
37309;SDS011;23195;47.744;7.358;2022-08-19T11:16:51;20.70;;;18.50;;
37309;SDS011;23195;47.744;7.358;2022-08-19T11:19:21;21.87;;;18.87;;
37309;SDS011;23195;47.744;7.358;2022-08-19T11:21:48;20.97;;;18.77;;
37309;SDS011;23195;47.744;7.358;2022-08-19T11:24:17;21.80;;;18.60;;
37309;SDS011;23195;47.744;7.358;2022-08-19T11:26:48;22.80;;;19.53;;
37309;SDS011;23195;47.744;7.358;2022-08-19T11:29:22;21.90;;;18.47;;
37309;SDS011;23195;47.744;7.358;2022-08-19T11:31:52;21.47;;;17.97;;
37309;SDS011;23195;47.744;7.358;2022-08-19T11:34:22;24.13;;;18.50;;
37309;SDS011;23195;47.744;7.358;2022-08-19T11:36:51;19.73;;;16.73;;
37309;SDS011;23195;47.744;7.358;2022-08-19T11:39:21;20.93;;;17.50;;
37309;SDS011;23195;47.744;7.358;2022-08-19T11:41:47;19.03;;;16.67;;
37309;SDS011;23195;47.744;7.358;2022-08-19T11:44:13;18.50;;;16.47;;
37309;SDS011;23195;47.744;7.358;2022-08-19T11:46:40;19.37;;;16.87;;
37309;SDS011;23195;47.744;7.358;2022-08-19T11:49:11;18.67;;;16.77;;
37309;SDS011;23195;47.744;7.358;2022-08-19T11:51:38;18.60;;;16.77;;
37309;SDS011;23195;47.744;7.358;2022-08-19T11:54:05;19.33;;;17.33;;
37309;SDS011;23195;47.744;7.358;2022-08-19T11:56:31;23.90;;;17.90;;
37309;SDS011;23195;47.744;7.358;2022-08-19T11:58:57;21.37;;;18.60;;
37309;SDS011;23195;47.744;7.358;2022-08-19T12:01:23;19.33;;;17.33;;
37309;SDS011;23195;47.744;7.358;2022-08-19T12:03:52;19.57;;;17.67;;
37309;SDS011;23195;47.744;7.358;2022-08-19T12:06:26;19.17;;;17.17;;
37309;SDS011;23195;47.744;7.358;2022-08-19T12:08:55;19.83;;;17.80;;
37309;SDS011;23195;47.744;7.358;2022-08-19T12:11:22;21.00;;;17.57;;
37309;SDS011;23195;47.744;7.358;2022-08-19T12:13:48;20.77;;;18.60;;
37309;SDS011;23195;47.744;7.358;2022-08-19T12:16:19;20.50;;;18.30;;
37309;SDS011;23195;47.744;7.358;2022-08-19T12:18:48;19.43;;;17.10;;
37309;SDS011;23195;47.744;7.358;2022-08-19T12:21:16;20.83;;;18.53;;
37309;SDS011;23195;47.744;7.358;2022-08-19T12:23:48;20.17;;;18.17;;
37309;SDS011;23195;47.744;7.358;2022-08-19T12:26:15;24.33;;;18.40;;
37309;SDS011;23195;47.744;7.358;2022-08-19T12:28:41;21.37;;;19.03;;
37309;SDS011;23195;47.744;7.358;2022-08-19T12:31:08;20.97;;;18.77;;
37309;SDS011;23195;47.744;7.358;2022-08-19T12:33:37;20.70;;;18.50;;
37309;SDS011;23195;47.744;7.358;2022-08-19T12:36:04;19.37;;;17.27;;
37309;SDS011;23195;47.744;7.358;2022-08-19T12:38:32;23.30;;;18.70;;
37309;SDS011;23195;47.744;7.358;2022-08-19T12:40:59;25.83;;;20.03;;
37309;SDS011;23195;47.744;7.358;2022-08-19T12:43:25;22.87;;;18.37;;
37309;SDS011;23195;47.744;7.358;2022-08-19T12:45:52;21.47;;;19.27;;
37309;SDS011;23195;47.744;7.358;2022-08-19T12:48:20;21.97;;;19.33;;
37309;SDS011;23195;47.744;7.358;2022-08-19T12:50:46;20.03;;;17.93;;
37309;SDS011;23195;47.744;7.358;2022-08-19T12:53:12;20.63;;;18.43;;
37309;SDS011;23195;47.744;7.358;2022-08-19T12:55:38;22.10;;;19.20;;
37309;SDS011;23195;47.744;7.358;2022-08-19T12:58:04;21.37;;;19.17;;
37309;SDS011;23195;47.744;7.358;2022-08-19T13:00:30;22.97;;;19.33;;
37309;SDS011;23195;47.744;7.358;2022-08-19T13:02:57;23.03;;;20.37;;
37309;SDS011;23195;47.744;7.358;2022-08-19T13:05:25;20.23;;;18.13;;
37309;SDS011;23195;47.744;7.358;2022-08-19T13:07:54;22.37;;;19.83;;
37309;SDS011;23195;47.744;7.358;2022-08-19T13:10:22;21.00;;;18.80;;
37309;SDS011;23195;47.744;7.358;2022-08-19T13:12:50;21.97;;;19.73;;
37309;SDS011;23195;47.744;7.358;2022-08-19T13:15:18;22.40;;;18.70;;
37309;SDS011;23195;47.744;7.358;2022-08-19T13:17:46;21.47;;;18.40;;
37309;SDS011;23195;47.744;7.358;2022-08-19T13:20:16;21.33;;;19.13;;
37309;SDS011;23195;47.744;7.358;2022-08-19T13:22:45;21.10;;;18.90;;
37309;SDS011;23195;47.744;7.358;2022-08-19T13:25:12;22.37;;;19.30;;
37309;SDS011;23195;47.744;7.358;2022-08-19T13:27:42;19.80;;;17.70;;
37309;SDS011;23195;47.744;7.358;2022-08-19T13:30:09;20.13;;;18.07;;
37309;SDS011;23195;47.744;7.358;2022-08-19T13:32:54;20.97;;;18.30;;
37309;SDS011;23195;47.744;7.358;2022-08-19T13:38:09;20.77;;;18.53;;
37309;SDS011;23195;47.744;7.358;2022-08-19T13:40:39;20.70;;;17.80;;
37309;SDS011;23195;47.744;7.358;2022-08-19T13:43:05;19.83;;;17.73;;
37309;SDS011;23195;47.744;7.358;2022-08-19T13:45:36;21.20;;;18.37;;
37309;SDS011;23195;47.744;7.358;2022-08-19T13:48:06;21.03;;;18.63;;
37309;SDS011;23195;47.744;7.358;2022-08-19T13:50:38;24.87;;;19.87;;
37309;SDS011;23195;47.744;7.358;2022-08-19T13:53:07;22.20;;;19.03;;
37309;SDS011;23195;47.744;7.358;2022-08-19T13:55:35;21.93;;;19.60;;
37309;SDS011;23195;47.744;7.358;2022-08-19T13:58:04;22.80;;;19.40;;
37309;SDS011;23195;47.744;7.358;2022-08-19T14:00:33;19.93;;;17.90;;
37309;SDS011;23195;47.744;7.358;2022-08-19T14:03:02;21.97;;;18.10;;
37309;SDS011;23195;47.744;7.358;2022-08-19T14:05:29;21.57;;;18.40;;
37309;SDS011;23195;47.744;7.358;2022-08-19T14:07:55;19.77;;;17.77;;
37309;SDS011;23195;47.744;7.358;2022-08-19T14:10:23;20.73;;;18.63;;
37309;SDS011;23195;47.744;7.358;2022-08-19T14:13:00;19.63;;;17.50;;
37309;SDS011;23195;47.744;7.358;2022-08-19T14:15:27;21.77;;;18.57;;
37309;SDS011;23195;47.744;7.358;2022-08-19T14:17:54;22.40;;;19.40;;
37309;SDS011;23195;47.744;7.358;2022-08-19T14:20:20;21.53;;;19.33;;
37309;SDS011;23195;47.744;7.358;2022-08-19T14:22:50;26.70;;;23.00;;
37309;SDS011;23195;47.744;7.358;2022-08-19T14:25:18;25.63;;;18.83;;
37309;SDS011;23195;47.744;7.358;2022-08-19T14:27:45;22.40;;;19.77;;
37309;SDS011;23195;47.744;7.358;2022-08-19T14:30:14;21.77;;;19.57;;
37309;SDS011;23195;47.744;7.358;2022-08-19T14:32:41;26.83;;;20.57;;
37309;SDS011;23195;47.744;7.358;2022-08-19T14:35:10;26.47;;;20.43;;
37309;SDS011;23195;47.744;7.358;2022-08-19T14:37:44;23.83;;;19.53;;
37309;SDS011;23195;47.744;7.358;2022-08-19T14:40:10;19.70;;;17.80;;
37309;SDS011;23195;47.744;7.358;2022-08-19T14:42:38;23.73;;;18.93;;
37309;SDS011;23195;47.744;7.358;2022-08-19T14:45:04;20.03;;;17.90;;
37309;SDS011;23195;47.744;7.358;2022-08-19T14:47:31;20.87;;;17.63;;
37309;SDS011;23195;47.744;7.358;2022-08-19T14:49:59;21.23;;;18.00;;
37309;SDS011;23195;47.744;7.358;2022-08-19T14:52:25;19.47;;;17.37;;
37309;SDS011;23195;47.744;7.358;2022-08-19T14:54:51;22.17;;;16.93;;
37309;SDS011;23195;47.744;7.358;2022-08-19T14:57:18;19.20;;;16.50;;
37309;SDS011;23195;47.744;7.358;2022-08-19T14:59:44;16.57;;;14.97;;
37309;SDS011;23195;47.744;7.358;2022-08-19T15:02:10;19.23;;;15.20;;
37309;SDS011;23195;47.744;7.358;2022-08-19T15:04:37;16.97;;;15.27;;
37309;SDS011;23195;47.744;7.358;2022-08-19T15:07:04;17.50;;;15.07;;
37309;SDS011;23195;47.744;7.358;2022-08-19T15:09:33;16.17;;;14.57;;
37309;SDS011;23195;47.744;7.358;2022-08-19T15:12:00;15.97;;;14.33;;
37309;SDS011;23195;47.744;7.358;2022-08-19T15:14:27;15.13;;;13.63;;
37309;SDS011;23195;47.744;7.358;2022-08-19T15:16:58;16.47;;;14.23;;
37309;SDS011;23195;47.744;7.358;2022-08-19T15:19:24;15.87;;;14.00;;
37309;SDS011;23195;47.744;7.358;2022-08-19T15:21:50;16.93;;;14.30;;
37309;SDS011;23195;47.744;7.358;2022-08-19T15:24:22;15.07;;;13.57;;
37309;SDS011;23195;47.744;7.358;2022-08-19T15:26:50;15.60;;;14.03;;
37309;SDS011;23195;47.744;7.358;2022-08-19T15:29:20;14.53;;;13.03;;
37309;SDS011;23195;47.744;7.358;2022-08-19T15:31:49;14.87;;;13.03;;
37309;SDS011;23195;47.744;7.358;2022-08-19T15:34:15;15.17;;;13.63;;
37309;SDS011;23195;47.744;7.358;2022-08-19T15:36:41;15.83;;;14.17;;
37309;SDS011;23195;47.744;7.358;2022-08-19T15:39:08;14.83;;;13.40;;
37309;SDS011;23195;47.744;7.358;2022-08-19T15:41:34;16.37;;;13.53;;
37309;SDS011;23195;47.744;7.358;2022-08-19T15:44:03;15.40;;;13.87;;
37309;SDS011;23195;47.744;7.358;2022-08-19T15:46:35;14.93;;;13.43;;
37309;SDS011;23195;47.744;7.358;2022-08-19T15:49:09;15.47;;;13.77;;
37309;SDS011;23195;47.744;7.358;2022-08-19T15:51:37;15.90;;;14.17;;
37309;SDS011;23195;47.744;7.358;2022-08-19T15:54:08;15.60;;;13.57;;
37309;SDS011;23195;47.744;7.358;2022-08-19T15:56:36;15.30;;;13.67;;
37309;SDS011;23195;47.744;7.358;2022-08-19T15:59:21;14.97;;;13.57;;
37309;SDS011;23195;47.744;7.358;2022-08-19T16:02:06;15.57;;;13.30;;
37309;SDS011;23195;47.744;7.358;2022-08-19T16:04:51;15.63;;;13.73;;
37309;SDS011;23195;47.744;7.358;2022-08-19T16:07:36;14.60;;;13.03;;
37309;SDS011;23195;47.744;7.358;2022-08-19T16:10:03;17.23;;;13.43;;
37309;SDS011;23195;47.744;7.358;2022-08-19T16:12:33;15.17;;;13.43;;
37309;SDS011;23195;47.744;7.358;2022-08-19T16:14:59;15.27;;;13.73;;
37309;SDS011;23195;47.744;7.358;2022-08-19T16:17:24;17.20;;;13.57;;
37309;SDS011;23195;47.744;7.358;2022-08-19T16:19:53;15.27;;;13.77;;
37309;SDS011;23195;47.744;7.358;2022-08-19T16:22:27;14.87;;;13.37;;
37309;SDS011;23195;47.744;7.358;2022-08-19T16:24:54;16.13;;;13.83;;
37309;SDS011;23195;47.744;7.358;2022-08-19T16:27:22;16.90;;;13.77;;
37309;SDS011;23195;47.744;7.358;2022-08-19T16:29:52;16.23;;;14.50;;
37309;SDS011;23195;47.744;7.358;2022-08-19T16:32:18;16.03;;;14.43;;
37309;SDS011;23195;47.744;7.358;2022-08-19T16:34:44;16.03;;;14.43;;
37309;SDS011;23195;47.744;7.358;2022-08-19T16:37:11;16.37;;;14.00;;
37309;SDS011;23195;47.744;7.358;2022-08-19T16:39:37;16.03;;;13.50;;
37309;SDS011;23195;47.744;7.358;2022-08-19T16:42:07;17.83;;;14.33;;
37309;SDS011;23195;47.744;7.358;2022-08-19T16:44:44;16.00;;;14.30;;
37309;SDS011;23195;47.744;7.358;2022-08-19T16:47:10;15.90;;;14.23;;
37309;SDS011;23195;47.744;7.358;2022-08-19T16:49:42;19.27;;;14.40;;
37309;SDS011;23195;47.744;7.358;2022-08-19T16:52:08;15.63;;;13.73;;
37309;SDS011;23195;47.744;7.358;2022-08-19T16:54:37;20.27;;;15.60;;
37309;SDS011;23195;47.744;7.358;2022-08-19T16:57:03;17.63;;;15.73;;
37309;SDS011;23195;47.744;7.358;2022-08-19T16:59:31;17.33;;;15.53;;
37309;SDS011;23195;47.744;7.358;2022-08-19T17:02:00;21.47;;;16.13;;
37309;SDS011;23195;47.744;7.358;2022-08-19T17:04:26;17.17;;;15.23;;
37309;SDS011;23195;47.744;7.358;2022-08-19T17:06:53;18.37;;;15.70;;
37309;SDS011;23195;47.744;7.358;2022-08-19T17:09:19;18.17;;;14.73;;
37309;SDS011;23195;47.744;7.358;2022-08-19T17:11:45;17.10;;;14.77;;
37309;SDS011;23195;47.744;7.358;2022-08-19T17:14:12;19.17;;;14.73;;
37309;SDS011;23195;47.744;7.358;2022-08-19T17:16:38;16.17;;;14.47;;
37309;SDS011;23195;47.744;7.358;2022-08-19T17:19:05;15.77;;;14.13;;
37309;SDS011;23195;47.744;7.358;2022-08-19T17:21:32;15.93;;;14.33;;
37309;SDS011;23195;47.744;7.358;2022-08-19T17:24:06;16.03;;;14.43;;
37309;SDS011;23195;47.744;7.358;2022-08-19T17:26:32;14.57;;;13.10;;
37309;SDS011;23195;47.744;7.358;2022-08-19T17:28:58;15.97;;;13.60;;
37309;SDS011;23195;47.744;7.358;2022-08-19T17:31:25;15.90;;;14.30;;
37309;SDS011;23195;47.744;7.358;2022-08-19T17:33:57;17.47;;;13.63;;
37309;SDS011;23195;47.744;7.358;2022-08-19T17:36:24;14.33;;;12.90;;
37309;SDS011;23195;47.744;7.358;2022-08-19T17:38:52;13.97;;;12.47;;
37309;SDS011;23195;47.744;7.358;2022-08-19T17:41:19;14.67;;;12.27;;
37309;SDS011;23195;47.744;7.358;2022-08-19T17:43:48;14.27;;;12.87;;
37309;SDS011;23195;47.744;7.358;2022-08-19T17:46:14;13.90;;;12.43;;
37309;SDS011;23195;47.744;7.358;2022-08-19T17:48:45;16.17;;;12.77;;
37309;SDS011;23195;47.744;7.358;2022-08-19T17:53:52;14.77;;;12.63;;
37309;SDS011;23195;47.744;7.358;2022-08-19T17:56:19;14.23;;;12.83;;
37309;SDS011;23195;47.744;7.358;2022-08-19T17:58:49;14.40;;;12.93;;
37309;SDS011;23195;47.744;7.358;2022-08-19T18:01:19;14.73;;;13.17;;
37309;SDS011;23195;47.744;7.358;2022-08-19T18:03:45;15.73;;;12.97;;
37309;SDS011;23195;47.744;7.358;2022-08-19T18:06:15;15.20;;;13.60;;
37309;SDS011;23195;47.744;7.358;2022-08-19T18:08:44;16.70;;;13.93;;
37309;SDS011;23195;47.744;7.358;2022-08-19T18:11:13;19.10;;;14.70;;
37309;SDS011;23195;47.744;7.358;2022-08-19T18:13:40;18.03;;;16.03;;
37309;SDS011;23195;47.744;7.358;2022-08-19T18:16:13;20.80;;;16.10;;
37309;SDS011;23195;47.744;7.358;2022-08-19T18:18:41;18.13;;;16.17;;
37309;SDS011;23195;47.744;7.358;2022-08-19T18:21:08;19.10;;;16.20;;
37309;SDS011;23195;47.744;7.358;2022-08-19T18:23:34;18.73;;;16.10;;
37309;SDS011;23195;47.744;7.358;2022-08-19T18:26:00;18.60;;;16.60;;
37309;SDS011;23195;47.744;7.358;2022-08-19T18:28:30;18.23;;;16.33;;
37309;SDS011;23195;47.744;7.358;2022-08-19T18:30:57;18.43;;;16.40;;
37309;SDS011;23195;47.744;7.358;2022-08-19T18:33:26;20.30;;;16.83;;
37309;SDS011;23195;47.744;7.358;2022-08-19T18:38:52;23.47;;;18.60;;
37309;SDS011;23195;47.744;7.358;2022-08-19T18:41:36;24.03;;;19.53;;
37309;SDS011;23195;47.744;7.358;2022-08-19T18:44:20;25.87;;;20.57;;
37309;SDS011;23195;47.744;7.358;2022-08-19T18:47:07;26.07;;;19.93;;
37309;SDS011;23195;47.744;7.358;2022-08-19T18:49:51;26.77;;;20.93;;
37309;SDS011;23195;47.744;7.358;2022-08-19T18:52:17;24.83;;;19.83;;
37309;SDS011;23195;47.744;7.358;2022-08-19T18:54:48;28.23;;;20.77;;
37309;SDS011;23195;47.744;7.358;2022-08-19T18:57:14;24.47;;;20.23;;
37309;SDS011;23195;47.744;7.358;2022-08-19T18:59:48;28.17;;;20.30;;
37309;SDS011;23195;47.744;7.358;2022-08-19T19:02:14;24.43;;;20.00;;
37309;SDS011;23195;47.744;7.358;2022-08-19T19:04:42;23.67;;;20.30;;
37309;SDS011;23195;47.744;7.358;2022-08-19T19:07:10;26.47;;;20.03;;
37309;SDS011;23195;47.744;7.358;2022-08-19T19:09:40;24.97;;;19.17;;
37309;SDS011;23195;47.744;7.358;2022-08-19T19:12:12;22.53;;;19.00;;
37309;SDS011;23195;47.744;7.358;2022-08-19T19:14:39;25.47;;;19.97;;
37309;SDS011;23195;47.744;7.358;2022-08-19T19:17:11;22.63;;;18.23;;
37309;SDS011;23195;47.744;7.358;2022-08-19T19:19:39;24.17;;;19.20;;
37309;SDS011;23195;47.744;7.358;2022-08-19T19:22:07;24.23;;;20.33;;
37309;SDS011;23195;47.744;7.358;2022-08-19T19:24:36;25.50;;;19.10;;
37309;SDS011;23195;47.744;7.358;2022-08-19T19:27:11;25.17;;;19.37;;
37309;SDS011;23195;47.744;7.358;2022-08-19T19:29:39;23.53;;;19.63;;
37309;SDS011;23195;47.744;7.358;2022-08-19T19:32:06;25.23;;;20.20;;
37309;SDS011;23195;47.744;7.358;2022-08-19T19:34:38;22.93;;;18.87;;
37309;SDS011;23195;47.744;7.358;2022-08-19T19:37:04;22.50;;;16.93;;
37309;SDS011;23195;47.744;7.358;2022-08-19T19:39:30;20.90;;;16.13;;
37309;SDS011;23195;47.744;7.358;2022-08-19T19:41:56;17.80;;;14.43;;
37309;SDS011;23195;47.744;7.358;2022-08-19T19:44:22;15.80;;;12.93;;
37309;SDS011;23195;47.744;7.358;2022-08-19T19:46:51;14.37;;;12.20;;
37309;SDS011;23195;47.744;7.358;2022-08-19T19:49:19;16.17;;;11.90;;
37309;SDS011;23195;47.744;7.358;2022-08-19T19:51:46;12.00;;;10.50;;
37309;SDS011;23195;47.744;7.358;2022-08-19T19:54:12;13.23;;;10.93;;
37309;SDS011;23195;47.744;7.358;2022-08-19T19:56:38;11.70;;;10.50;;
37309;SDS011;23195;47.744;7.358;2022-08-19T19:59:09;12.23;;;10.70;;
37309;SDS011;23195;47.744;7.358;2022-08-19T20:01:35;12.53;;;10.90;;
37309;SDS011;23195;47.744;7.358;2022-08-19T20:04:01;12.43;;;10.50;;
37309;SDS011;23195;47.744;7.358;2022-08-19T20:06:27;12.13;;;10.83;;
37309;SDS011;23195;47.744;7.358;2022-08-19T20:08:53;11.27;;;10.13;;
37309;SDS011;23195;47.744;7.358;2022-08-19T20:13:59;16.77;;;10.50;;
37309;SDS011;23195;47.744;7.358;2022-08-19T20:16:28;12.33;;;10.60;;
37309;SDS011;23195;47.744;7.358;2022-08-19T20:18:56;10.70;;;9.27;;
37309;SDS011;23195;47.744;7.358;2022-08-19T20:21:27;10.53;;;9.43;;
37309;SDS011;23195;47.744;7.358;2022-08-19T20:23:57;17.63;;;10.13;;
37309;SDS011;23195;47.744;7.358;2022-08-19T20:26:25;12.73;;;9.03;;
37309;SDS011;23195;47.744;7.358;2022-08-19T20:28:52;10.67;;;8.90;;
37309;SDS011;23195;47.744;7.358;2022-08-19T20:31:18;10.83;;;9.67;;
37309;SDS011;23195;47.744;7.358;2022-08-19T20:33:48;11.93;;;9.03;;
37309;SDS011;23195;47.744;7.358;2022-08-19T20:36:14;12.27;;;9.37;;
37309;SDS011;23195;47.744;7.358;2022-08-19T20:38:40;9.97;;;8.97;;
37309;SDS011;23195;47.744;7.358;2022-08-19T20:41:07;10.63;;;8.27;;
37309;SDS011;23195;47.744;7.358;2022-08-19T20:43:35;11.10;;;8.80;;
37309;SDS011;23195;47.744;7.358;2022-08-19T20:46:02;10.13;;;8.30;;
37309;SDS011;23195;47.744;7.358;2022-08-19T20:48:29;10.27;;;7.67;;
37309;SDS011;23195;47.744;7.358;2022-08-19T20:50:55;7.70;;;6.63;;